sensor_id;sensor_type;location;lat;lon;timestamp;P1;durP1;ratioP1;P2;durP2;ratioP2
55931;SDS011;41837;55.700;37.984;2022-08-19T00:00:00;17.48;;;5.88;;
55931;SDS011;41837;55.700;37.984;2022-08-19T00:02:30;20.23;;;6.13;;
55931;SDS011;41837;55.700;37.984;2022-08-19T00:04:58;12.88;;;5.80;;
55931;SDS011;41837;55.700;37.984;2022-08-19T00:07:24;13.35;;;5.68;;
55931;SDS011;41837;55.700;37.984;2022-08-19T00:09:51;17.77;;;6.45;;
55931;SDS011;41837;55.700;37.984;2022-08-19T00:12:16;14.05;;;5.78;;
55931;SDS011;41837;55.700;37.984;2022-08-19T00:14:42;12.75;;;5.70;;
55931;SDS011;41837;55.700;37.984;2022-08-19T00:17:08;18.60;;;6.43;;
55931;SDS011;41837;55.700;37.984;2022-08-19T00:19:35;12.68;;;6.28;;
55931;SDS011;41837;55.700;37.984;2022-08-19T00:22:01;12.35;;;6.32;;
55931;SDS011;41837;55.700;37.984;2022-08-19T00:24:28;19.48;;;5.80;;
55931;SDS011;41837;55.700;37.984;2022-08-19T00:26:55;11.65;;;5.88;;
55931;SDS011;41837;55.700;37.984;2022-08-19T00:29:22;16.27;;;6.40;;
55931;SDS011;41837;55.700;37.984;2022-08-19T00:31:48;14.40;;;5.80;;
55931;SDS011;41837;55.700;37.984;2022-08-19T00:34:15;13.45;;;6.38;;
55931;SDS011;41837;55.700;37.984;2022-08-19T00:36:41;15.15;;;6.45;;
55931;SDS011;41837;55.700;37.984;2022-08-19T00:39:08;14.00;;;6.05;;
55931;SDS011;41837;55.700;37.984;2022-08-19T00:41:34;13.82;;;6.45;;
55931;SDS011;41837;55.700;37.984;2022-08-19T00:46:30;16.17;;;7.05;;
55931;SDS011;41837;55.700;37.984;2022-08-19T00:48:57;14.98;;;7.35;;
55931;SDS011;41837;55.700;37.984;2022-08-19T00:51:24;20.20;;;7.03;;
55931;SDS011;41837;55.700;37.984;2022-08-19T00:53:52;14.57;;;6.38;;
55931;SDS011;41837;55.700;37.984;2022-08-19T00:56:18;13.63;;;6.88;;
55931;SDS011;41837;55.700;37.984;2022-08-19T00:58:44;17.42;;;7.28;;
55931;SDS011;41837;55.700;37.984;2022-08-19T01:01:11;17.55;;;6.43;;
55931;SDS011;41837;55.700;37.984;2022-08-19T01:03:38;18.33;;;7.07;;
55931;SDS011;41837;55.700;37.984;2022-08-19T01:06:03;22.75;;;7.38;;
55931;SDS011;41837;55.700;37.984;2022-08-19T01:08:30;29.95;;;7.75;;
55931;SDS011;41837;55.700;37.984;2022-08-19T01:10:56;23.95;;;7.70;;
55931;SDS011;41837;55.700;37.984;2022-08-19T01:13:25;19.67;;;8.02;;
55931;SDS011;41837;55.700;37.984;2022-08-19T01:15:55;22.30;;;7.97;;
55931;SDS011;41837;55.700;37.984;2022-08-19T01:18:22;16.10;;;7.63;;
55931;SDS011;41837;55.700;37.984;2022-08-19T01:20:49;24.50;;;7.93;;
55931;SDS011;41837;55.700;37.984;2022-08-19T01:23:16;20.02;;;7.30;;
55931;SDS011;41837;55.700;37.984;2022-08-19T01:25:44;17.05;;;7.60;;
55931;SDS011;41837;55.700;37.984;2022-08-19T01:28:15;16.48;;;7.10;;
55931;SDS011;41837;55.700;37.984;2022-08-19T01:30:43;26.92;;;7.90;;
55931;SDS011;41837;55.700;37.984;2022-08-19T01:33:09;19.63;;;7.57;;
55931;SDS011;41837;55.700;37.984;2022-08-19T01:35:35;18.13;;;7.45;;
55931;SDS011;41837;55.700;37.984;2022-08-19T01:38:03;19.08;;;6.95;;
55931;SDS011;41837;55.700;37.984;2022-08-19T01:40:34;21.38;;;7.57;;
55931;SDS011;41837;55.700;37.984;2022-08-19T01:43:00;22.63;;;8.48;;
55931;SDS011;41837;55.700;37.984;2022-08-19T01:45:27;18.23;;;8.13;;
55931;SDS011;41837;55.700;37.984;2022-08-19T01:47:54;19.55;;;8.38;;
55931;SDS011;41837;55.700;37.984;2022-08-19T01:50:21;19.48;;;8.50;;
55931;SDS011;41837;55.700;37.984;2022-08-19T01:52:46;22.45;;;8.40;;
55931;SDS011;41837;55.700;37.984;2022-08-19T01:55:15;15.82;;;8.65;;
55931;SDS011;41837;55.700;37.984;2022-08-19T01:57:42;16.20;;;8.40;;
55931;SDS011;41837;55.700;37.984;2022-08-19T02:00:15;21.85;;;8.70;;
55931;SDS011;41837;55.700;37.984;2022-08-19T02:02:42;24.25;;;8.82;;
55931;SDS011;41837;55.700;37.984;2022-08-19T02:05:09;26.27;;;8.63;;
55931;SDS011;41837;55.700;37.984;2022-08-19T02:07:35;14.05;;;7.63;;
55931;SDS011;41837;55.700;37.984;2022-08-19T02:10:05;23.92;;;8.90;;
55931;SDS011;41837;55.700;37.984;2022-08-19T02:12:31;17.15;;;8.30;;
55931;SDS011;41837;55.700;37.984;2022-08-19T02:14:57;19.33;;;7.97;;
55931;SDS011;41837;55.700;37.984;2022-08-19T02:17:24;23.73;;;8.80;;
55931;SDS011;41837;55.700;37.984;2022-08-19T02:19:50;19.52;;;8.07;;
55931;SDS011;41837;55.700;37.984;2022-08-19T02:22:16;22.70;;;8.38;;
55931;SDS011;41837;55.700;37.984;2022-08-19T02:24:42;16.35;;;8.02;;
55931;SDS011;41837;55.700;37.984;2022-08-19T02:27:08;15.52;;;8.15;;
55931;SDS011;41837;55.700;37.984;2022-08-19T02:29:34;23.02;;;8.52;;
55931;SDS011;41837;55.700;37.984;2022-08-19T02:32:00;20.80;;;8.38;;
55931;SDS011;41837;55.700;37.984;2022-08-19T02:34:26;21.35;;;9.10;;
55931;SDS011;41837;55.700;37.984;2022-08-19T02:36:52;20.13;;;8.35;;
55931;SDS011;41837;55.700;37.984;2022-08-19T02:39:18;20.67;;;8.45;;
55931;SDS011;41837;55.700;37.984;2022-08-19T02:41:45;23.17;;;8.00;;
55931;SDS011;41837;55.700;37.984;2022-08-19T02:44:11;20.70;;;7.68;;
55931;SDS011;41837;55.700;37.984;2022-08-19T02:46:38;21.63;;;8.57;;
55931;SDS011;41837;55.700;37.984;2022-08-19T02:49:05;19.10;;;7.82;;
55931;SDS011;41837;55.700;37.984;2022-08-19T02:51:32;15.80;;;7.50;;
55931;SDS011;41837;55.700;37.984;2022-08-19T02:53:59;21.35;;;7.35;;
55931;SDS011;41837;55.700;37.984;2022-08-19T02:56:26;19.23;;;6.97;;
55931;SDS011;41837;55.700;37.984;2022-08-19T02:58:53;24.65;;;7.13;;
55931;SDS011;41837;55.700;37.984;2022-08-19T03:01:24;13.65;;;6.70;;
55931;SDS011;41837;55.700;37.984;2022-08-19T03:03:51;14.20;;;6.28;;
55931;SDS011;41837;55.700;37.984;2022-08-19T03:06:17;16.25;;;6.85;;
55931;SDS011;41837;55.700;37.984;2022-08-19T03:08:44;16.20;;;7.10;;
55931;SDS011;41837;55.700;37.984;2022-08-19T03:11:27;17.38;;;6.88;;
55931;SDS011;41837;55.700;37.984;2022-08-19T03:13:55;16.23;;;6.85;;
55931;SDS011;41837;55.700;37.984;2022-08-19T03:16:23;13.32;;;6.63;;
55931;SDS011;41837;55.700;37.984;2022-08-19T03:18:50;14.98;;;7.07;;
55931;SDS011;41837;55.700;37.984;2022-08-19T03:21:17;16.50;;;7.03;;
55931;SDS011;41837;55.700;37.984;2022-08-19T03:23:43;12.80;;;6.80;;
55931;SDS011;41837;55.700;37.984;2022-08-19T03:26:08;28.65;;;7.03;;
55931;SDS011;41837;55.700;37.984;2022-08-19T03:28:34;17.98;;;6.80;;
55931;SDS011;41837;55.700;37.984;2022-08-19T03:31:02;17.30;;;7.03;;
55931;SDS011;41837;55.700;37.984;2022-08-19T03:33:29;17.98;;;6.68;;
55931;SDS011;41837;55.700;37.984;2022-08-19T03:38:27;18.27;;;5.93;;
55931;SDS011;41837;55.700;37.984;2022-08-19T03:40:53;11.73;;;6.78;;
55931;SDS011;41837;55.700;37.984;2022-08-19T03:43:19;13.27;;;6.47;;
55931;SDS011;41837;55.700;37.984;2022-08-19T03:45:45;14.52;;;6.85;;
55931;SDS011;41837;55.700;37.984;2022-08-19T03:48:10;16.48;;;6.78;;
55931;SDS011;41837;55.700;37.984;2022-08-19T03:50:39;23.98;;;8.02;;
55931;SDS011;41837;55.700;37.984;2022-08-19T03:53:06;21.98;;;7.57;;
55931;SDS011;41837;55.700;37.984;2022-08-19T03:55:32;17.38;;;7.50;;
55931;SDS011;41837;55.700;37.984;2022-08-19T03:57:59;16.77;;;7.65;;
55931;SDS011;41837;55.700;37.984;2022-08-19T04:00:25;19.52;;;8.35;;
55931;SDS011;41837;55.700;37.984;2022-08-19T04:02:52;25.83;;;7.45;;
55931;SDS011;41837;55.700;37.984;2022-08-19T04:05:18;22.05;;;7.95;;
55931;SDS011;41837;55.700;37.984;2022-08-19T04:07:44;19.65;;;7.63;;
55931;SDS011;41837;55.700;37.984;2022-08-19T04:10:10;17.45;;;7.82;;
55931;SDS011;41837;55.700;37.984;2022-08-19T04:12:36;17.95;;;7.15;;
55931;SDS011;41837;55.700;37.984;2022-08-19T04:15:03;23.10;;;8.25;;
55931;SDS011;41837;55.700;37.984;2022-08-19T04:17:29;17.42;;;7.07;;
55931;SDS011;41837;55.700;37.984;2022-08-19T04:19:55;20.80;;;7.32;;
55931;SDS011;41837;55.700;37.984;2022-08-19T04:22:21;18.10;;;7.18;;
55931;SDS011;41837;55.700;37.984;2022-08-19T04:24:47;20.20;;;6.78;;
55931;SDS011;41837;55.700;37.984;2022-08-19T04:27:14;20.65;;;7.25;;
55931;SDS011;41837;55.700;37.984;2022-08-19T04:29:41;24.83;;;6.75;;
55931;SDS011;41837;55.700;37.984;2022-08-19T04:32:07;14.18;;;6.85;;
55931;SDS011;41837;55.700;37.984;2022-08-19T04:34:33;29.17;;;7.15;;
55931;SDS011;41837;55.700;37.984;2022-08-19T04:36:59;21.05;;;7.00;;
55931;SDS011;41837;55.700;37.984;2022-08-19T04:39:27;15.68;;;6.07;;
55931;SDS011;41837;55.700;37.984;2022-08-19T04:42:13;19.60;;;6.43;;
55931;SDS011;41837;55.700;37.984;2022-08-19T04:44:58;16.70;;;5.90;;
55931;SDS011;41837;55.700;37.984;2022-08-19T04:47:24;11.98;;;5.82;;
55931;SDS011;41837;55.700;37.984;2022-08-19T04:49:51;18.35;;;5.72;;
55931;SDS011;41837;55.700;37.984;2022-08-19T04:52:17;17.08;;;5.18;;
55931;SDS011;41837;55.700;37.984;2022-08-19T04:54:43;18.65;;;5.82;;
55931;SDS011;41837;55.700;37.984;2022-08-19T04:57:09;18.35;;;5.70;;
55931;SDS011;41837;55.700;37.984;2022-08-19T04:59:35;23.08;;;5.68;;
55931;SDS011;41837;55.700;37.984;2022-08-19T05:02:02;13.05;;;5.03;;
55931;SDS011;41837;55.700;37.984;2022-08-19T05:04:28;12.35;;;5.05;;
55931;SDS011;41837;55.700;37.984;2022-08-19T05:06:57;14.90;;;5.47;;
55931;SDS011;41837;55.700;37.984;2022-08-19T05:09:23;14.25;;;5.10;;
55931;SDS011;41837;55.700;37.984;2022-08-19T05:11:48;14.60;;;5.28;;
55931;SDS011;41837;55.700;37.984;2022-08-19T05:14:18;16.02;;;4.85;;
55931;SDS011;41837;55.700;37.984;2022-08-19T05:16:45;16.92;;;5.10;;
55931;SDS011;41837;55.700;37.984;2022-08-19T05:19:11;12.55;;;4.72;;
55931;SDS011;41837;55.700;37.984;2022-08-19T05:21:56;17.55;;;4.38;;
55931;SDS011;41837;55.700;37.984;2022-08-19T05:24:41;16.65;;;4.47;;
55931;SDS011;41837;55.700;37.984;2022-08-19T05:27:07;11.00;;;5.00;;
55931;SDS011;41837;55.700;37.984;2022-08-19T05:29:35;17.35;;;4.68;;
55931;SDS011;41837;55.700;37.984;2022-08-19T05:32:02;14.00;;;4.78;;
55931;SDS011;41837;55.700;37.984;2022-08-19T05:34:31;19.70;;;5.18;;
55931;SDS011;41837;55.700;37.984;2022-08-19T05:36:58;14.98;;;4.65;;
55931;SDS011;41837;55.700;37.984;2022-08-19T05:39:27;11.65;;;4.68;;
55931;SDS011;41837;55.700;37.984;2022-08-19T05:41:57;12.90;;;4.72;;
55931;SDS011;41837;55.700;37.984;2022-08-19T05:44:27;13.15;;;4.55;;
55931;SDS011;41837;55.700;37.984;2022-08-19T05:47:00;9.82;;;4.32;;
55931;SDS011;41837;55.700;37.984;2022-08-19T05:49:28;18.15;;;5.45;;
55931;SDS011;41837;55.700;37.984;2022-08-19T05:51:54;24.67;;;5.82;;
55931;SDS011;41837;55.700;37.984;2022-08-19T05:54:22;16.10;;;5.20;;
55931;SDS011;41837;55.700;37.984;2022-08-19T05:56:48;14.73;;;5.18;;
55931;SDS011;41837;55.700;37.984;2022-08-19T05:59:15;20.17;;;5.88;;
55931;SDS011;41837;55.700;37.984;2022-08-19T06:01:45;28.35;;;6.20;;
55931;SDS011;41837;55.700;37.984;2022-08-19T06:04:11;18.98;;;6.28;;
55931;SDS011;41837;55.700;37.984;2022-08-19T06:06:39;18.45;;;6.18;;
55931;SDS011;41837;55.700;37.984;2022-08-19T06:09:06;13.40;;;6.22;;
55931;SDS011;41837;55.700;37.984;2022-08-19T06:11:43;27.92;;;6.28;;
55931;SDS011;41837;55.700;37.984;2022-08-19T06:14:11;13.45;;;5.78;;
55931;SDS011;41837;55.700;37.984;2022-08-19T06:16:38;13.77;;;5.88;;
55931;SDS011;41837;55.700;37.984;2022-08-19T06:19:07;11.05;;;5.32;;
55931;SDS011;41837;55.700;37.984;2022-08-19T06:21:34;16.45;;;6.70;;
55931;SDS011;41837;55.700;37.984;2022-08-19T06:24:06;18.92;;;5.85;;
55931;SDS011;41837;55.700;37.984;2022-08-19T06:26:34;19.63;;;6.55;;
55931;SDS011;41837;55.700;37.984;2022-08-19T06:29:00;11.60;;;5.53;;
55931;SDS011;41837;55.700;37.984;2022-08-19T06:31:27;16.70;;;5.57;;
55931;SDS011;41837;55.700;37.984;2022-08-19T06:33:54;14.63;;;5.60;;
55931;SDS011;41837;55.700;37.984;2022-08-19T06:36:24;30.25;;;6.32;;
55931;SDS011;41837;55.700;37.984;2022-08-19T06:38:57;26.55;;;6.22;;
55931;SDS011;41837;55.700;37.984;2022-08-19T06:41:24;27.83;;;6.55;;
55931;SDS011;41837;55.700;37.984;2022-08-19T06:43:51;20.70;;;6.20;;
55931;SDS011;41837;55.700;37.984;2022-08-19T06:46:17;18.23;;;6.25;;
55931;SDS011;41837;55.700;37.984;2022-08-19T06:48:45;21.10;;;6.60;;
55931;SDS011;41837;55.700;37.984;2022-08-19T06:51:12;21.70;;;6.25;;
55931;SDS011;41837;55.700;37.984;2022-08-19T06:53:41;15.85;;;5.40;;
55931;SDS011;41837;55.700;37.984;2022-08-19T06:56:15;25.42;;;6.80;;
55931;SDS011;41837;55.700;37.984;2022-08-19T06:58:41;20.27;;;6.15;;
55931;SDS011;41837;55.700;37.984;2022-08-19T07:01:07;19.85;;;5.72;;
55931;SDS011;41837;55.700;37.984;2022-08-19T07:03:34;12.57;;;4.35;;
55931;SDS011;41837;55.700;37.984;2022-08-19T07:06:05;12.45;;;4.68;;
55931;SDS011;41837;55.700;37.984;2022-08-19T07:08:31;15.55;;;5.47;;
55931;SDS011;41837;55.700;37.984;2022-08-19T07:10:58;13.07;;;4.68;;
55931;SDS011;41837;55.700;37.984;2022-08-19T07:13:24;26.70;;;5.65;;
55931;SDS011;41837;55.700;37.984;2022-08-19T07:15:51;32.95;;;5.53;;
55931;SDS011;41837;55.700;37.984;2022-08-19T07:18:20;11.55;;;5.35;;
55931;SDS011;41837;55.700;37.984;2022-08-19T07:20:47;20.10;;;5.60;;
55931;SDS011;41837;55.700;37.984;2022-08-19T07:23:13;14.82;;;4.93;;
55931;SDS011;41837;55.700;37.984;2022-08-19T07:25:39;17.50;;;5.30;;
55931;SDS011;41837;55.700;37.984;2022-08-19T07:28:05;14.25;;;4.93;;
55931;SDS011;41837;55.700;37.984;2022-08-19T07:30:35;11.02;;;4.78;;
55931;SDS011;41837;55.700;37.984;2022-08-19T07:33:01;18.33;;;5.07;;
55931;SDS011;41837;55.700;37.984;2022-08-19T07:35:27;23.75;;;5.07;;
55931;SDS011;41837;55.700;37.984;2022-08-19T07:37:53;20.02;;;5.13;;
55931;SDS011;41837;55.700;37.984;2022-08-19T07:40:20;20.55;;;5.07;;
55931;SDS011;41837;55.700;37.984;2022-08-19T07:42:46;21.20;;;5.85;;
55931;SDS011;41837;55.700;37.984;2022-08-19T07:45:12;26.73;;;6.32;;
55931;SDS011;41837;55.700;37.984;2022-08-19T07:47:37;14.32;;;5.95;;
55931;SDS011;41837;55.700;37.984;2022-08-19T07:50:07;24.48;;;5.43;;
55931;SDS011;41837;55.700;37.984;2022-08-19T07:52:34;24.25;;;4.90;;
55931;SDS011;41837;55.700;37.984;2022-08-19T07:55:01;32.88;;;5.55;;
55931;SDS011;41837;55.700;37.984;2022-08-19T07:57:29;17.40;;;5.20;;
55931;SDS011;41837;55.700;37.984;2022-08-19T07:59:55;14.98;;;4.75;;
55931;SDS011;41837;55.700;37.984;2022-08-19T08:02:21;31.15;;;5.88;;
55931;SDS011;41837;55.700;37.984;2022-08-19T08:04:47;13.50;;;4.47;;
55931;SDS011;41837;55.700;37.984;2022-08-19T08:07:32;15.95;;;3.22;;
55931;SDS011;41837;55.700;37.984;2022-08-19T08:10:16;18.63;;;3.72;;
55931;SDS011;41837;55.700;37.984;2022-08-19T08:12:43;43.22;;;4.07;;
55931;SDS011;41837;55.700;37.984;2022-08-19T08:15:11;14.98;;;3.85;;
55931;SDS011;41837;55.700;37.984;2022-08-19T08:17:42;10.10;;;3.15;;
55931;SDS011;41837;55.700;37.984;2022-08-19T08:20:08;13.32;;;2.70;;
55931;SDS011;41837;55.700;37.984;2022-08-19T08:22:35;11.35;;;3.15;;
55931;SDS011;41837;55.700;37.984;2022-08-19T08:25:22;16.23;;;3.25;;
55931;SDS011;41837;55.700;37.984;2022-08-19T08:27:48;13.95;;;2.88;;
55931;SDS011;41837;55.700;37.984;2022-08-19T08:30:16;14.43;;;2.92;;
55931;SDS011;41837;55.700;37.984;2022-08-19T08:32:42;8.98;;;2.70;;
55931;SDS011;41837;55.700;37.984;2022-08-19T08:35:09;2.90;;;2.10;;
55931;SDS011;41837;55.700;37.984;2022-08-19T08:37:36;14.27;;;4.03;;
55931;SDS011;41837;55.700;37.984;2022-08-19T08:40:05;29.80;;;3.75;;
55931;SDS011;41837;55.700;37.984;2022-08-19T08:42:34;17.52;;;4.00;;
55931;SDS011;41837;55.700;37.984;2022-08-19T08:45:13;9.90;;;3.67;;
55931;SDS011;41837;55.700;37.984;2022-08-19T08:47:41;18.02;;;3.88;;
55931;SDS011;41837;55.700;37.984;2022-08-19T08:50:12;13.82;;;3.72;;
55931;SDS011;41837;55.700;37.984;2022-08-19T08:52:47;12.60;;;3.60;;
55931;SDS011;41837;55.700;37.984;2022-08-19T08:55:19;16.55;;;3.60;;
55931;SDS011;41837;55.700;37.984;2022-08-19T08:57:51;17.50;;;3.33;;
55931;SDS011;41837;55.700;37.984;2022-08-19T09:02:46;22.30;;;3.58;;
55931;SDS011;41837;55.700;37.984;2022-08-19T09:05:13;17.55;;;3.22;;
55931;SDS011;41837;55.700;37.984;2022-08-19T09:15:48;16.58;;;3.10;;
55931;SDS011;41837;55.700;37.984;2022-08-19T09:18:16;21.58;;;3.22;;
55931;SDS011;41837;55.700;37.984;2022-08-19T09:20:42;50.08;;;4.55;;
55931;SDS011;41837;55.700;37.984;2022-08-19T09:23:08;53.65;;;4.90;;
55931;SDS011;41837;55.700;37.984;2022-08-19T09:25:35;54.88;;;4.68;;
55931;SDS011;41837;55.700;37.984;2022-08-19T09:28:01;38.67;;;3.90;;
55931;SDS011;41837;55.700;37.984;2022-08-19T09:30:30;24.25;;;3.30;;
55931;SDS011;41837;55.700;37.984;2022-08-19T09:32:56;49.58;;;4.75;;
55931;SDS011;41837;55.700;37.984;2022-08-19T09:35:23;106.60;;;7.25;;
55931;SDS011;41837;55.700;37.984;2022-08-19T09:37:50;26.38;;;3.60;;
55931;SDS011;41837;55.700;37.984;2022-08-19T09:40:17;45.60;;;4.53;;
55931;SDS011;41837;55.700;37.984;2022-08-19T09:42:43;39.90;;;4.00;;
55931;SDS011;41837;55.700;37.984;2022-08-19T09:45:10;43.50;;;3.45;;
55931;SDS011;41837;55.700;37.984;2022-08-19T09:47:36;15.90;;;2.60;;
55931;SDS011;41837;55.700;37.984;2022-08-19T09:50:04;11.50;;;2.45;;
55931;SDS011;41837;55.700;37.984;2022-08-19T09:52:31;15.48;;;2.67;;
55931;SDS011;41837;55.700;37.984;2022-08-19T09:54:57;22.20;;;2.75;;
55931;SDS011;41837;55.700;37.984;2022-08-19T09:57:23;17.02;;;2.90;;
55931;SDS011;41837;55.700;37.984;2022-08-19T09:59:50;9.25;;;2.40;;
55931;SDS011;41837;55.700;37.984;2022-08-19T10:02:16;39.92;;;3.80;;
55931;SDS011;41837;55.700;37.984;2022-08-19T10:04:42;10.98;;;2.58;;
55931;SDS011;41837;55.700;37.984;2022-08-19T10:09:52;8.45;;;2.13;;
55931;SDS011;41837;55.700;37.984;2022-08-19T10:12:19;46.72;;;3.83;;
55931;SDS011;41837;55.700;37.984;2022-08-19T10:14:45;19.77;;;2.80;;
55931;SDS011;41837;55.700;37.984;2022-08-19T10:17:13;16.10;;;2.78;;
55931;SDS011;41837;55.700;37.984;2022-08-19T10:22:30;24.98;;;3.30;;
55931;SDS011;41837;55.700;37.984;2022-08-19T10:24:56;15.75;;;2.30;;
55931;SDS011;41837;55.700;37.984;2022-08-19T10:27:22;16.40;;;2.67;;
55931;SDS011;41837;55.700;37.984;2022-08-19T10:29:48;22.60;;;2.97;;
55931;SDS011;41837;55.700;37.984;2022-08-19T10:32:15;14.20;;;2.25;;
55931;SDS011;41837;55.700;37.984;2022-08-19T10:34:43;14.57;;;2.45;;
55931;SDS011;41837;55.700;37.984;2022-08-19T10:37:10;16.30;;;2.60;;
55931;SDS011;41837;55.700;37.984;2022-08-19T10:39:36;7.22;;;2.30;;
55931;SDS011;41837;55.700;37.984;2022-08-19T10:42:09;13.80;;;2.60;;
55931;SDS011;41837;55.700;37.984;2022-08-19T10:44:39;25.85;;;3.30;;
55931;SDS011;41837;55.700;37.984;2022-08-19T10:47:05;26.60;;;3.50;;
55931;SDS011;41837;55.700;37.984;2022-08-19T10:49:31;18.67;;;2.97;;
55931;SDS011;41837;55.700;37.984;2022-08-19T10:52:18;16.88;;;2.25;;
55931;SDS011;41837;55.700;37.984;2022-08-19T10:55:05;28.00;;;2.92;;
55931;SDS011;41837;55.700;37.984;2022-08-19T10:57:51;20.30;;;2.83;;
55931;SDS011;41837;55.700;37.984;2022-08-19T11:00:18;18.20;;;2.80;;
55931;SDS011;41837;55.700;37.984;2022-08-19T11:02:46;14.00;;;2.60;;
55931;SDS011;41837;55.700;37.984;2022-08-19T11:05:12;15.85;;;2.67;;
55931;SDS011;41837;55.700;37.984;2022-08-19T11:07:39;6.53;;;2.00;;
55931;SDS011;41837;55.700;37.984;2022-08-19T11:10:06;21.40;;;2.75;;
55931;SDS011;41837;55.700;37.984;2022-08-19T11:12:32;16.60;;;2.50;;
55931;SDS011;41837;55.700;37.984;2022-08-19T11:14:59;15.70;;;2.50;;
55931;SDS011;41837;55.700;37.984;2022-08-19T11:17:26;11.25;;;2.45;;
55931;SDS011;41837;55.700;37.984;2022-08-19T11:19:52;14.35;;;2.25;;
55931;SDS011;41837;55.700;37.984;2022-08-19T11:22:18;10.93;;;2.50;;
55931;SDS011;41837;55.700;37.984;2022-08-19T11:24:45;25.85;;;3.08;;
55931;SDS011;41837;55.700;37.984;2022-08-19T11:27:11;35.58;;;3.63;;
55931;SDS011;41837;55.700;37.984;2022-08-19T11:29:40;23.55;;;3.00;;
55931;SDS011;41837;55.700;37.984;2022-08-19T11:32:08;11.80;;;2.83;;
55931;SDS011;41837;55.700;37.984;2022-08-19T11:34:34;8.27;;;2.72;;
55931;SDS011;41837;55.700;37.984;2022-08-19T11:37:01;9.32;;;2.40;;
55931;SDS011;41837;55.700;37.984;2022-08-19T11:39:28;9.60;;;2.72;;
55931;SDS011;41837;55.700;37.984;2022-08-19T11:41:54;12.02;;;2.80;;
55931;SDS011;41837;55.700;37.984;2022-08-19T11:44:20;20.33;;;2.53;;
55931;SDS011;41837;55.700;37.984;2022-08-19T11:46:46;48.28;;;4.03;;
55931;SDS011;41837;55.700;37.984;2022-08-19T11:49:13;19.08;;;3.25;;
55931;SDS011;41837;55.700;37.984;2022-08-19T11:51:40;29.67;;;3.83;;
55931;SDS011;41837;55.700;37.984;2022-08-19T11:54:08;22.67;;;3.58;;
55931;SDS011;41837;55.700;37.984;2022-08-19T11:56:36;18.08;;;3.10;;
55931;SDS011;41837;55.700;37.984;2022-08-19T11:59:02;10.25;;;2.78;;
55931;SDS011;41837;55.700;37.984;2022-08-19T12:01:28;13.98;;;3.15;;
55931;SDS011;41837;55.700;37.984;2022-08-19T12:03:54;10.90;;;2.78;;
55931;SDS011;41837;55.700;37.984;2022-08-19T12:06:22;13.20;;;2.90;;
55931;SDS011;41837;55.700;37.984;2022-08-19T12:08:51;8.07;;;2.80;;
55931;SDS011;41837;55.700;37.984;2022-08-19T12:11:18;47.00;;;4.30;;
55931;SDS011;41837;55.700;37.984;2022-08-19T12:13:44;32.65;;;3.70;;
55931;SDS011;41837;55.700;37.984;2022-08-19T12:16:13;31.13;;;3.67;;
55931;SDS011;41837;55.700;37.984;2022-08-19T12:18:41;22.42;;;2.75;;
55931;SDS011;41837;55.700;37.984;2022-08-19T12:21:10;23.15;;;3.35;;
55931;SDS011;41837;55.700;37.984;2022-08-19T12:23:40;17.90;;;3.30;;
55931;SDS011;41837;55.700;37.984;2022-08-19T12:26:06;23.58;;;3.20;;
55931;SDS011;41837;55.700;37.984;2022-08-19T12:28:34;14.88;;;2.67;;
55931;SDS011;41837;55.700;37.984;2022-08-19T12:31:00;14.52;;;2.60;;
55931;SDS011;41837;55.700;37.984;2022-08-19T12:33:28;49.30;;;3.70;;
55931;SDS011;41837;55.700;37.984;2022-08-19T12:35:54;43.78;;;4.40;;
55931;SDS011;41837;55.700;37.984;2022-08-19T12:38:26;22.45;;;3.22;;
55931;SDS011;41837;55.700;37.984;2022-08-19T12:40:52;10.35;;;2.92;;
55931;SDS011;41837;55.700;37.984;2022-08-19T12:43:19;8.43;;;2.58;;
55931;SDS011;41837;55.700;37.984;2022-08-19T12:45:46;16.65;;;3.25;;
55931;SDS011;41837;55.700;37.984;2022-08-19T12:48:12;16.85;;;3.00;;
55931;SDS011;41837;55.700;37.984;2022-08-19T12:50:39;7.60;;;2.63;;
55931;SDS011;41837;55.700;37.984;2022-08-19T12:53:05;11.35;;;4.28;;
55931;SDS011;41837;55.700;37.984;2022-08-19T12:55:31;11.40;;;2.65;;
55931;SDS011;41837;55.700;37.984;2022-08-19T12:57:57;21.13;;;3.58;;
55931;SDS011;41837;55.700;37.984;2022-08-19T13:00:23;18.02;;;3.13;;
55931;SDS011;41837;55.700;37.984;2022-08-19T13:02:50;15.48;;;5.70;;
55931;SDS011;41837;55.700;37.984;2022-08-19T13:05:18;25.92;;;11.48;;
55931;SDS011;41837;55.700;37.984;2022-08-19T13:07:46;16.75;;;6.20;;
55931;SDS011;41837;55.700;37.984;2022-08-19T13:10:13;16.00;;;4.55;;
55931;SDS011;41837;55.700;37.984;2022-08-19T13:12:41;17.85;;;4.60;;
55931;SDS011;41837;55.700;37.984;2022-08-19T13:15:07;20.13;;;2.83;;
55931;SDS011;41837;55.700;37.984;2022-08-19T13:17:35;13.80;;;2.60;;
55931;SDS011;41837;55.700;37.984;2022-08-19T13:20:01;19.35;;;3.65;;
55931;SDS011;41837;55.700;37.984;2022-08-19T13:22:28;14.55;;;3.47;;
55931;SDS011;41837;55.700;37.984;2022-08-19T13:24:54;12.93;;;3.55;;
55931;SDS011;41837;55.700;37.984;2022-08-19T13:27:20;20.63;;;3.58;;
55931;SDS011;41837;55.700;37.984;2022-08-19T13:29:46;25.27;;;4.05;;
55931;SDS011;41837;55.700;37.984;2022-08-19T13:32:31;10.13;;;3.13;;
55931;SDS011;41837;55.700;37.984;2022-08-19T13:35:16;16.50;;;3.28;;
55931;SDS011;41837;55.700;37.984;2022-08-19T13:37:43;12.15;;;3.13;;
55931;SDS011;41837;55.700;37.984;2022-08-19T13:40:13;13.43;;;3.08;;
55931;SDS011;41837;55.700;37.984;2022-08-19T13:42:41;10.32;;;2.90;;
55931;SDS011;41837;55.700;37.984;2022-08-19T13:45:08;13.00;;;3.13;;
55931;SDS011;41837;55.700;37.984;2022-08-19T13:47:35;17.52;;;3.20;;
55931;SDS011;41837;55.700;37.984;2022-08-19T13:50:04;16.02;;;3.20;;
55931;SDS011;41837;55.700;37.984;2022-08-19T13:52:31;7.78;;;3.70;;
55931;SDS011;41837;55.700;37.984;2022-08-19T13:54:57;16.23;;;4.88;;
55931;SDS011;41837;55.700;37.984;2022-08-19T13:57:23;14.48;;;4.28;;
55931;SDS011;41837;55.700;37.984;2022-08-19T13:59:49;9.70;;;4.60;;
55931;SDS011;41837;55.700;37.984;2022-08-19T14:02:15;9.60;;;4.60;;
55931;SDS011;41837;55.700;37.984;2022-08-19T14:04:41;11.35;;;4.45;;
55931;SDS011;41837;55.700;37.984;2022-08-19T14:07:07;13.32;;;4.55;;
55931;SDS011;41837;55.700;37.984;2022-08-19T14:09:33;10.80;;;3.72;;
55931;SDS011;41837;55.700;37.984;2022-08-19T14:12:00;11.75;;;4.03;;
55931;SDS011;41837;55.700;37.984;2022-08-19T14:14:26;9.13;;;3.90;;
55931;SDS011;41837;55.700;37.984;2022-08-19T14:17:00;12.70;;;3.33;;
55931;SDS011;41837;55.700;37.984;2022-08-19T14:19:27;8.25;;;3.10;;
55931;SDS011;41837;55.700;37.984;2022-08-19T14:21:54;17.65;;;4.00;;
55931;SDS011;41837;55.700;37.984;2022-08-19T14:24:22;13.40;;;4.00;;
55931;SDS011;41837;55.700;37.984;2022-08-19T14:26:48;12.57;;;4.20;;
55931;SDS011;41837;55.700;37.984;2022-08-19T14:29:14;12.35;;;3.85;;
55931;SDS011;41837;55.700;37.984;2022-08-19T14:31:41;10.15;;;3.42;;
55931;SDS011;41837;55.700;37.984;2022-08-19T14:34:09;10.68;;;3.85;;
55931;SDS011;41837;55.700;37.984;2022-08-19T14:36:36;12.88;;;3.67;;
55931;SDS011;41837;55.700;37.984;2022-08-19T14:39:02;7.22;;;3.40;;
55931;SDS011;41837;55.700;37.984;2022-08-19T14:41:28;16.10;;;3.78;;
55931;SDS011;41837;55.700;37.984;2022-08-19T14:43:57;4.80;;;3.30;;
55931;SDS011;41837;55.700;37.984;2022-08-19T14:46:25;14.20;;;3.50;;